sensor_id;sensor_type;location;lat;lon;timestamp;P1;durP1;ratioP1;P2;durP2;ratioP2
920;SDS011;447;51.332;6.778;2023-03-14T00:00:15;5.00;;;2.20;;
920;SDS011;447;51.332;6.778;2023-03-14T00:02:41;4.30;;;1.80;;
920;SDS011;447;51.332;6.778;2023-03-14T00:05:08;3.23;;;2.10;;
920;SDS011;447;51.332;6.778;2023-03-14T00:07:38;4.30;;;2.33;;
920;SDS011;447;51.332;6.778;2023-03-14T00:10:05;3.70;;;2.10;;
920;SDS011;447;51.332;6.778;2023-03-14T00:12:36;4.27;;;2.20;;
920;SDS011;447;51.332;6.778;2023-03-14T00:15:06;3.90;;;1.90;;
920;SDS011;447;51.332;6.778;2023-03-14T00:17:35;3.30;;;2.10;;
920;SDS011;447;51.332;6.778;2023-03-14T00:20:01;7.20;;;2.40;;
920;SDS011;447;51.332;6.778;2023-03-14T00:22:35;5.20;;;1.80;;
920;SDS011;447;51.332;6.778;2023-03-14T00:25:08;5.37;;;2.07;;
920;SDS011;447;51.332;6.778;2023-03-14T00:27:35;4.53;;;2.30;;
920;SDS011;447;51.332;6.778;2023-03-14T00:30:04;6.43;;;2.00;;
920;SDS011;447;51.332;6.778;2023-03-14T00:32:35;6.73;;;2.53;;
920;SDS011;447;51.332;6.778;2023-03-14T00:35:03;4.53;;;2.00;;
920;SDS011;447;51.332;6.778;2023-03-14T00:37:30;10.73;;;2.10;;
920;SDS011;447;51.332;6.778;2023-03-14T00:39:58;6.90;;;1.70;;
920;SDS011;447;51.332;6.778;2023-03-14T00:42:26;3.07;;;1.67;;
920;SDS011;447;51.332;6.778;2023-03-14T00:44:53;7.40;;;1.57;;
920;SDS011;447;51.332;6.778;2023-03-14T00:47:21;3.93;;;1.63;;
920;SDS011;447;51.332;6.778;2023-03-14T00:49:47;4.40;;;1.50;;
920;SDS011;447;51.332;6.778;2023-03-14T00:52:13;3.53;;;1.10;;
920;SDS011;447;51.332;6.778;2023-03-14T00:54:41;5.97;;;1.33;;
920;SDS011;447;51.332;6.778;2023-03-14T00:57:07;1.80;;;1.20;;
920;SDS011;447;51.332;6.778;2023-03-14T00:59:33;1.83;;;1.00;;
920;SDS011;447;51.332;6.778;2023-03-14T01:02:02;3.73;;;1.30;;
920;SDS011;447;51.332;6.778;2023-03-14T01:04:27;3.70;;;1.10;;
920;SDS011;447;51.332;6.778;2023-03-14T01:06:58;6.97;;;2.03;;
920;SDS011;447;51.332;6.778;2023-03-14T01:09:28;3.80;;;1.20;;
920;SDS011;447;51.332;6.778;2023-03-14T01:11:54;2.13;;;1.20;;
920;SDS011;447;51.332;6.778;2023-03-14T01:14:20;5.27;;;1.50;;
920;SDS011;447;51.332;6.778;2023-03-14T01:16:51;4.33;;;2.10;;
920;SDS011;447;51.332;6.778;2023-03-14T01:19:19;6.83;;;1.83;;
920;SDS011;447;51.332;6.778;2023-03-14T01:21:47;4.77;;;1.83;;
920;SDS011;447;51.332;6.778;2023-03-14T01:24:13;3.20;;;1.30;;
920;SDS011;447;51.332;6.778;2023-03-14T01:26:40;5.67;;;1.53;;
920;SDS011;447;51.332;6.778;2023-03-14T01:29:07;5.63;;;1.70;;
920;SDS011;447;51.332;6.778;2023-03-14T01:31:35;4.70;;;1.50;;
920;SDS011;447;51.332;6.778;2023-03-14T01:34:01;5.03;;;1.57;;
920;SDS011;447;51.332;6.778;2023-03-14T01:36:27;4.30;;;1.80;;
920;SDS011;447;51.332;6.778;2023-03-14T01:38:53;4.27;;;1.30;;
920;SDS011;447;51.332;6.778;2023-03-14T01:41:23;4.37;;;1.23;;
920;SDS011;447;51.332;6.778;2023-03-14T01:43:52;5.33;;;1.70;;
920;SDS011;447;51.332;6.778;2023-03-14T01:52:07;7.27;;;1.50;;
920;SDS011;447;51.332;6.778;2023-03-14T01:57:16;4.60;;;1.30;;
920;SDS011;447;51.332;6.778;2023-03-14T01:59:47;2.60;;;1.20;;
920;SDS011;447;51.332;6.778;2023-03-14T02:02:26;5.13;;;1.40;;
920;SDS011;447;51.332;6.778;2023-03-14T02:04:57;5.33;;;1.70;;
920;SDS011;447;51.332;6.778;2023-03-14T02:07:33;3.20;;;1.20;;
920;SDS011;447;51.332;6.778;2023-03-14T02:10:13;4.63;;;1.40;;
920;SDS011;447;51.332;6.778;2023-03-14T02:12:41;3.23;;;1.37;;
920;SDS011;447;51.332;6.778;2023-03-14T02:15:13;3.87;;;1.40;;
920;SDS011;447;51.332;6.778;2023-03-14T02:17:52;3.27;;;1.17;;
920;SDS011;447;51.332;6.778;2023-03-14T02:23:48;3.97;;;1.37;;
920;SDS011;447;51.332;6.778;2023-03-14T02:27:20;4.43;;;1.43;;
920;SDS011;447;51.332;6.778;2023-03-14T02:29:30;3.93;;;1.67;;
920;SDS011;447;51.332;6.778;2023-03-14T02:31:59;3.57;;;1.40;;
920;SDS011;447;51.332;6.778;2023-03-14T02:34:26;5.07;;;1.50;;
920;SDS011;447;51.332;6.778;2023-03-14T02:36:54;4.00;;;1.20;;
920;SDS011;447;51.332;6.778;2023-03-14T02:39:38;6.67;;;1.70;;
920;SDS011;447;51.332;6.778;2023-03-14T02:42:11;8.30;;;1.87;;
920;SDS011;447;51.332;6.778;2023-03-14T02:47:44;2.50;;;1.40;;
920;SDS011;447;51.332;6.778;2023-03-14T02:50:33;5.60;;;1.93;;
920;SDS011;447;51.332;6.778;2023-03-14T02:53:02;4.57;;;2.17;;
920;SDS011;447;51.332;6.778;2023-03-14T02:55:32;6.43;;;2.03;;
920;SDS011;447;51.332;6.778;2023-03-14T02:58:03;3.00;;;1.30;;
920;SDS011;447;51.332;6.778;2023-03-14T03:00:29;5.23;;;1.40;;
920;SDS011;447;51.332;6.778;2023-03-14T03:02:58;5.83;;;2.33;;
920;SDS011;447;51.332;6.778;2023-03-14T03:05:26;6.47;;;1.57;;
920;SDS011;447;51.332;6.778;2023-03-14T03:07:52;3.33;;;1.40;;
920;SDS011;447;51.332;6.778;2023-03-14T03:10:21;5.13;;;1.70;;
920;SDS011;447;51.332;6.778;2023-03-14T03:12:49;4.33;;;1.50;;
920;SDS011;447;51.332;6.778;2023-03-14T03:15:17;4.43;;;1.57;;
920;SDS011;447;51.332;6.778;2023-03-14T03:17:43;4.37;;;1.60;;
920;SDS011;447;51.332;6.778;2023-03-14T03:20:11;4.87;;;1.43;;
920;SDS011;447;51.332;6.778;2023-03-14T03:22:38;8.50;;;1.80;;
920;SDS011;447;51.332;6.778;2023-03-14T03:25:08;6.30;;;1.80;;
920;SDS011;447;51.332;6.778;2023-03-14T03:27:38;3.67;;;1.73;;
920;SDS011;447;51.332;6.778;2023-03-14T03:30:06;4.60;;;1.60;;
920;SDS011;447;51.332;6.778;2023-03-14T03:32:38;3.73;;;1.80;;
920;SDS011;447;51.332;6.778;2023-03-14T03:35:10;5.10;;;2.20;;
920;SDS011;447;51.332;6.778;2023-03-14T03:37:39;4.80;;;1.40;;
920;SDS011;447;51.332;6.778;2023-03-14T03:40:10;3.57;;;1.40;;
920;SDS011;447;51.332;6.778;2023-03-14T03:42:38;4.90;;;1.80;;
920;SDS011;447;51.332;6.778;2023-03-14T03:45:09;9.40;;;1.47;;
920;SDS011;447;51.332;6.778;2023-03-14T03:47:40;3.73;;;1.67;;
920;SDS011;447;51.332;6.778;2023-03-14T03:50:10;4.83;;;1.40;;
920;SDS011;447;51.332;6.778;2023-03-14T03:52:40;3.07;;;1.57;;
920;SDS011;447;51.332;6.778;2023-03-14T03:55:06;5.60;;;1.23;;
920;SDS011;447;51.332;6.778;2023-03-14T03:57:33;5.70;;;1.63;;
920;SDS011;447;51.332;6.778;2023-03-14T03:59:59;3.00;;;1.13;;
920;SDS011;447;51.332;6.778;2023-03-14T04:02:27;3.43;;;1.53;;
920;SDS011;447;51.332;6.778;2023-03-14T04:04:55;4.80;;;1.60;;
920;SDS011;447;51.332;6.778;2023-03-14T04:07:24;2.00;;;1.53;;
920;SDS011;447;51.332;6.778;2023-03-14T04:09:54;5.93;;;1.50;;
920;SDS011;447;51.332;6.778;2023-03-14T04:12:36;3.40;;;1.13;;
920;SDS011;447;51.332;6.778;2023-03-14T04:15:16;4.93;;;1.50;;
920;SDS011;447;51.332;6.778;2023-03-14T04:17:46;1.33;;;0.90;;
920;SDS011;447;51.332;6.778;2023-03-14T04:20:15;2.97;;;1.20;;
920;SDS011;447;51.332;6.778;2023-03-14T04:22:43;2.67;;;1.10;;
920;SDS011;447;51.332;6.778;2023-03-14T04:25:09;1.93;;;0.87;;
920;SDS011;447;51.332;6.778;2023-03-14T04:27:43;4.03;;;1.00;;
920;SDS011;447;51.332;6.778;2023-03-14T04:30:17;1.27;;;0.80;;
920;SDS011;447;51.332;6.778;2023-03-14T04:32:49;1.37;;;0.80;;
920;SDS011;447;51.332;6.778;2023-03-14T04:35:15;1.77;;;0.80;;
920;SDS011;447;51.332;6.778;2023-03-14T04:37:41;2.30;;;0.87;;
920;SDS011;447;51.332;6.778;2023-03-14T04:40:10;1.67;;;0.80;;
920;SDS011;447;51.332;6.778;2023-03-14T04:42:39;1.20;;;0.80;;
920;SDS011;447;51.332;6.778;2023-03-14T04:45:08;1.00;;;0.77;;
920;SDS011;447;51.332;6.778;2023-03-14T04:47:38;1.57;;;0.67;;
920;SDS011;447;51.332;6.778;2023-03-14T04:50:05;1.90;;;0.83;;
920;SDS011;447;51.332;6.778;2023-03-14T04:52:32;2.03;;;0.60;;
920;SDS011;447;51.332;6.778;2023-03-14T04:54:59;0.90;;;0.70;;
920;SDS011;447;51.332;6.778;2023-03-14T04:57:26;1.43;;;0.97;;
920;SDS011;447;51.332;6.778;2023-03-14T04:59:53;1.37;;;0.80;;
920;SDS011;447;51.332;6.778;2023-03-14T05:02:48;1.53;;;0.80;;
920;SDS011;447;51.332;6.778;2023-03-14T05:05:18;2.60;;;0.80;;
920;SDS011;447;51.332;6.778;2023-03-14T05:08:12;1.20;;;0.73;;
920;SDS011;447;51.332;6.778;2023-03-14T05:11:03;0.90;;;0.70;;
920;SDS011;447;51.332;6.778;2023-03-14T05:13:50;1.40;;;0.83;;
920;SDS011;447;51.332;6.778;2023-03-14T05:16:33;2.30;;;0.80;;
920;SDS011;447;51.332;6.778;2023-03-14T05:19:04;3.27;;;0.80;;
920;SDS011;447;51.332;6.778;2023-03-14T05:21:35;1.87;;;0.90;;
920;SDS011;447;51.332;6.778;2023-03-14T05:24:14;1.40;;;0.60;;
920;SDS011;447;51.332;6.778;2023-03-14T05:26:57;2.17;;;0.90;;
920;SDS011;447;51.332;6.778;2023-03-14T05:29:56;1.10;;;0.80;;
920;SDS011;447;51.332;6.778;2023-03-14T05:32:56;1.00;;;0.60;;
920;SDS011;447;51.332;6.778;2023-03-14T05:35:50;4.33;;;1.03;;
920;SDS011;447;51.332;6.778;2023-03-14T05:38:45;3.10;;;0.77;;
920;SDS011;447;51.332;6.778;2023-03-14T05:41:30;2.27;;;0.90;;
920;SDS011;447;51.332;6.778;2023-03-14T05:44:17;1.47;;;1.00;;
920;SDS011;447;51.332;6.778;2023-03-14T05:47:10;1.17;;;0.70;;
920;SDS011;447;51.332;6.778;2023-03-14T05:49:47;1.40;;;0.87;;
920;SDS011;447;51.332;6.778;2023-03-14T05:52:30;1.30;;;0.90;;
920;SDS011;447;51.332;6.778;2023-03-14T05:55:21;2.50;;;0.90;;
920;SDS011;447;51.332;6.778;2023-03-14T05:58:04;2.10;;;0.97;;
920;SDS011;447;51.332;6.778;2023-03-14T06:00:45;1.00;;;0.80;;
920;SDS011;447;51.332;6.778;2023-03-14T06:03:26;1.27;;;0.70;;
920;SDS011;447;51.332;6.778;2023-03-14T06:05:54;1.13;;;0.73;;
920;SDS011;447;51.332;6.778;2023-03-14T06:08:24;1.37;;;0.70;;
920;SDS011;447;51.332;6.778;2023-03-14T06:10:51;1.60;;;1.00;;
920;SDS011;447;51.332;6.778;2023-03-14T06:13:22;2.17;;;0.80;;
920;SDS011;447;51.332;6.778;2023-03-14T06:15:50;1.50;;;0.90;;
920;SDS011;447;51.332;6.778;2023-03-14T06:18:16;2.50;;;0.90;;
920;SDS011;447;51.332;6.778;2023-03-14T06:20:42;1.07;;;0.77;;
920;SDS011;447;51.332;6.778;2023-03-14T06:23:12;1.47;;;0.80;;
920;SDS011;447;51.332;6.778;2023-03-14T06:25:38;1.47;;;0.87;;
920;SDS011;447;51.332;6.778;2023-03-14T06:28:07;1.80;;;0.80;;
920;SDS011;447;51.332;6.778;2023-03-14T06:30:37;2.03;;;0.70;;
920;SDS011;447;51.332;6.778;2023-03-14T06:33:04;1.00;;;0.90;;
920;SDS011;447;51.332;6.778;2023-03-14T06:35:30;0.90;;;0.73;;
920;SDS011;447;51.332;6.778;2023-03-14T06:38:01;0.70;;;0.57;;
920;SDS011;447;51.332;6.778;2023-03-14T06:40:29;0.80;;;0.73;;
920;SDS011;447;51.332;6.778;2023-03-14T06:43:06;1.23;;;0.67;;
920;SDS011;447;51.332;6.778;2023-03-14T06:45:33;1.10;;;0.90;;
920;SDS011;447;51.332;6.778;2023-03-14T06:48:01;1.10;;;1.00;;
920;SDS011;447;51.332;6.778;2023-03-14T06:50:47;0.97;;;0.60;;
920;SDS011;447;51.332;6.778;2023-03-14T06:53:19;0.90;;;0.70;;
920;SDS011;447;51.332;6.778;2023-03-14T06:55:45;1.30;;;1.00;;
920;SDS011;447;51.332;6.778;2023-03-14T06:58:13;3.30;;;1.50;;
920;SDS011;447;51.332;6.778;2023-03-14T07:00:44;2.70;;;1.67;;
920;SDS011;447;51.332;6.778;2023-03-14T07:03:15;3.93;;;2.50;;
920;SDS011;447;51.332;6.778;2023-03-14T07:05:45;3.13;;;1.60;;
920;SDS011;447;51.332;6.778;2023-03-14T07:08:11;2.40;;;1.90;;
920;SDS011;447;51.332;6.778;2023-03-14T07:10:37;1.77;;;1.17;;
920;SDS011;447;51.332;6.778;2023-03-14T07:13:05;4.40;;;1.53;;
920;SDS011;447;51.332;6.778;2023-03-14T07:15:41;3.43;;;1.83;;
920;SDS011;447;51.332;6.778;2023-03-14T07:18:09;2.87;;;1.60;;
920;SDS011;447;51.332;6.778;2023-03-14T07:20:37;1.97;;;1.23;;
920;SDS011;447;51.332;6.778;2023-03-14T07:23:05;2.07;;;1.23;;
920;SDS011;447;51.332;6.778;2023-03-14T07:25:42;1.33;;;1.23;;
920;SDS011;447;51.332;6.778;2023-03-14T07:28:08;2.40;;;1.20;;
920;SDS011;447;51.332;6.778;2023-03-14T07:30:41;1.63;;;0.93;;
920;SDS011;447;51.332;6.778;2023-03-14T07:33:16;1.67;;;1.30;;
920;SDS011;447;51.332;6.778;2023-03-14T07:35:42;2.10;;;1.40;;
920;SDS011;447;51.332;6.778;2023-03-14T07:38:08;1.80;;;1.40;;
920;SDS011;447;51.332;6.778;2023-03-14T07:40:57;1.40;;;1.30;;
920;SDS011;447;51.332;6.778;2023-03-14T07:43:29;2.60;;;1.40;;
920;SDS011;447;51.332;6.778;2023-03-14T07:45:59;1.77;;;1.50;;
920;SDS011;447;51.332;6.778;2023-03-14T07:48:33;1.80;;;1.37;;
920;SDS011;447;51.332;6.778;2023-03-14T07:50:59;1.37;;;1.20;;
920;SDS011;447;51.332;6.778;2023-03-14T07:53:25;2.03;;;1.20;;
920;SDS011;447;51.332;6.778;2023-03-14T07:55:56;1.50;;;1.30;;
920;SDS011;447;51.332;6.778;2023-03-14T07:58:24;1.40;;;1.30;;
920;SDS011;447;51.332;6.778;2023-03-14T08:00:51;3.60;;;1.30;;
920;SDS011;447;51.332;6.778;2023-03-14T08:03:18;1.20;;;1.10;;
920;SDS011;447;51.332;6.778;2023-03-14T08:05:45;1.80;;;1.30;;
920;SDS011;447;51.332;6.778;2023-03-14T08:08:13;1.30;;;1.10;;
920;SDS011;447;51.332;6.778;2023-03-14T08:10:39;1.23;;;1.00;;
920;SDS011;447;51.332;6.778;2023-03-14T08:13:05;4.03;;;1.10;;
920;SDS011;447;51.332;6.778;2023-03-14T08:15:38;0.93;;;0.80;;
920;SDS011;447;51.332;6.778;2023-03-14T08:18:05;1.00;;;0.90;;
920;SDS011;447;51.332;6.778;2023-03-14T08:20:31;1.20;;;0.83;;
920;SDS011;447;51.332;6.778;2023-03-14T08:23:00;2.30;;;0.97;;
920;SDS011;447;51.332;6.778;2023-03-14T08:25:29;1.83;;;1.10;;
920;SDS011;447;51.332;6.778;2023-03-14T08:27:55;1.00;;;0.80;;
920;SDS011;447;51.332;6.778;2023-03-14T08:30:27;1.00;;;0.90;;
920;SDS011;447;51.332;6.778;2023-03-14T08:32:58;1.20;;;1.10;;
920;SDS011;447;51.332;6.778;2023-03-14T08:35:24;2.70;;;1.00;;
920;SDS011;447;51.332;6.778;2023-03-14T08:37:52;1.20;;;1.10;;
920;SDS011;447;51.332;6.778;2023-03-14T08:40:21;1.10;;;1.00;;
920;SDS011;447;51.332;6.778;2023-03-14T08:42:46;2.00;;;1.40;;
920;SDS011;447;51.332;6.778;2023-03-14T08:45:17;1.40;;;1.10;;
920;SDS011;447;51.332;6.778;2023-03-14T08:48:01;1.20;;;1.10;;
920;SDS011;447;51.332;6.778;2023-03-14T08:50:27;1.27;;;1.17;;
920;SDS011;447;51.332;6.778;2023-03-14T08:52:53;1.67;;;1.20;;
920;SDS011;447;51.332;6.778;2023-03-14T08:55:27;1.20;;;1.10;;
920;SDS011;447;51.332;6.778;2023-03-14T08:58:02;2.37;;;1.50;;
920;SDS011;447;51.332;6.778;2023-03-14T09:00:28;1.67;;;1.27;;
920;SDS011;447;51.332;6.778;2023-03-14T09:02:59;1.20;;;1.10;;
920;SDS011;447;51.332;6.778;2023-03-14T09:05:27;1.60;;;1.27;;
920;SDS011;447;51.332;6.778;2023-03-14T09:07:53;2.10;;;1.30;;
920;SDS011;447;51.332;6.778;2023-03-14T09:10:21;1.73;;;1.00;;
920;SDS011;447;51.332;6.778;2023-03-14T09:12:48;1.40;;;1.17;;
920;SDS011;447;51.332;6.778;2023-03-14T09:15:18;1.30;;;1.20;;
920;SDS011;447;51.332;6.778;2023-03-14T09:17:48;2.10;;;1.37;;
920;SDS011;447;51.332;6.778;2023-03-14T09:20:16;2.43;;;1.27;;
920;SDS011;447;51.332;6.778;2023-03-14T09:22:42;1.80;;;1.20;;
920;SDS011;447;51.332;6.778;2023-03-14T09:25:10;1.97;;;1.17;;
920;SDS011;447;51.332;6.778;2023-03-14T09:27:39;1.67;;;1.03;;
920;SDS011;447;51.332;6.778;2023-03-14T09:30:07;1.00;;;0.90;;
920;SDS011;447;51.332;6.778;2023-03-14T09:32:34;3.17;;;0.80;;
920;SDS011;447;51.332;6.778;2023-03-14T09:35:00;1.30;;;1.00;;
920;SDS011;447;51.332;6.778;2023-03-14T09:37:28;1.63;;;0.67;;
920;SDS011;447;51.332;6.778;2023-03-14T09:39:59;2.70;;;0.90;;
920;SDS011;447;51.332;6.778;2023-03-14T09:42:37;2.40;;;1.00;;
920;SDS011;447;51.332;6.778;2023-03-14T09:45:25;1.60;;;0.80;;
920;SDS011;447;51.332;6.778;2023-03-14T09:47:58;0.80;;;0.63;;
920;SDS011;447;51.332;6.778;2023-03-14T09:50:24;1.50;;;1.00;;
920;SDS011;447;51.332;6.778;2023-03-14T09:52:58;1.30;;;0.93;;
920;SDS011;447;51.332;6.778;2023-03-14T09:55:33;2.53;;;0.93;;
920;SDS011;447;51.332;6.778;2023-03-14T09:58:00;1.20;;;1.10;;
920;SDS011;447;51.332;6.778;2023-03-14T10:00:39;1.97;;;1.20;;
920;SDS011;447;51.332;6.778;2023-03-14T10:03:19;2.70;;;1.23;;
920;SDS011;447;51.332;6.778;2023-03-14T10:05:56;1.50;;;1.40;;
920;SDS011;447;51.332;6.778;2023-03-14T10:08:24;1.50;;;1.10;;
920;SDS011;447;51.332;6.778;2023-03-14T10:10:53;1.50;;;1.40;;
920;SDS011;447;51.332;6.778;2023-03-14T10:13:24;1.40;;;1.30;;
920;SDS011;447;51.332;6.778;2023-03-14T10:15:56;2.30;;;1.43;;
920;SDS011;447;51.332;6.778;2023-03-14T10:18:33;1.70;;;1.40;;
920;SDS011;447;51.332;6.778;2023-03-14T10:23:36;2.13;;;1.70;;
920;SDS011;447;51.332;6.778;2023-03-14T10:26:12;2.20;;;1.40;;
920;SDS011;447;51.332;6.778;2023-03-14T10:28:43;2.50;;;1.80;;
920;SDS011;447;51.332;6.778;2023-03-14T10:31:12;2.63;;;1.40;;
920;SDS011;447;51.332;6.778;2023-03-14T10:33:38;2.07;;;1.40;;
920;SDS011;447;51.332;6.778;2023-03-14T10:36:20;1.67;;;1.57;;
920;SDS011;447;51.332;6.778;2023-03-14T10:38:51;2.07;;;1.70;;
920;SDS011;447;51.332;6.778;2023-03-14T10:41:41;2.90;;;2.27;;
920;SDS011;447;51.332;6.778;2023-03-14T10:44:14;3.40;;;2.10;;
920;SDS011;447;51.332;6.778;2023-03-14T10:46:41;6.00;;;1.97;;
920;SDS011;447;51.332;6.778;2023-03-14T10:51:55;3.03;;;2.27;;
920;SDS011;447;51.332;6.778;2023-03-14T10:54:29;3.70;;;2.47;;
920;SDS011;447;51.332;6.778;2023-03-14T10:56:56;3.60;;;2.67;;
920;SDS011;447;51.332;6.778;2023-03-14T10:59:24;4.77;;;2.20;;
920;SDS011;447;51.332;6.778;2023-03-14T11:07:42;4.63;;;2.33;;
920;SDS011;447;51.332;6.778;2023-03-14T11:15:48;3.70;;;2.40;;
920;SDS011;447;51.332;6.778;2023-03-14T11:27:00;3.30;;;1.80;;
920;SDS011;447;51.332;6.778;2023-03-14T11:29:41;5.13;;;1.93;;
920;SDS011;447;51.332;6.778;2023-03-14T11:32:19;3.50;;;1.70;;
920;SDS011;447;51.332;6.778;2023-03-14T11:34:54;4.23;;;1.60;;
920;SDS011;447;51.332;6.778;2023-03-14T11:37:26;2.87;;;1.90;;
920;SDS011;447;51.332;6.778;2023-03-14T11:40:06;3.07;;;1.47;;
920;SDS011;447;51.332;6.778;2023-03-14T11:43:04;3.83;;;1.40;;
920;SDS011;447;51.332;6.778;2023-03-14T11:45:50;2.53;;;1.40;;
920;SDS011;447;51.332;6.778;2023-03-14T11:48:27;3.33;;;1.90;;
920;SDS011;447;51.332;6.778;2023-03-14T11:51:15;1.90;;;1.20;;
920;SDS011;447;51.332;6.778;2023-03-14T11:54:00;2.20;;;1.30;;
920;SDS011;447;51.332;6.778;2023-03-14T11:59:21;2.27;;;1.43;;
920;SDS011;447;51.332;6.778;2023-03-14T12:02:00;4.17;;;1.60;;
920;SDS011;447;51.332;6.778;2023-03-14T12:04:43;1.77;;;1.30;;
920;SDS011;447;51.332;6.778;2023-03-14T12:07:20;1.63;;;1.00;;
920;SDS011;447;51.332;6.778;2023-03-14T12:10:18;2.37;;;1.27;;
920;SDS011;447;51.332;6.778;2023-03-14T12:12:46;6.13;;;2.17;;
920;SDS011;447;51.332;6.778;2023-03-14T12:15:19;3.10;;;1.77;;
920;SDS011;447;51.332;6.778;2023-03-14T12:17:56;1.97;;;1.57;;
920;SDS011;447;51.332;6.778;2023-03-14T12:20:26;3.83;;;1.90;;
920;SDS011;447;51.332;6.778;2023-03-14T12:25:22;5.30;;;1.73;;
920;SDS011;447;51.332;6.778;2023-03-14T12:35:58;3.87;;;2.00;;
920;SDS011;447;51.332;6.778;2023-03-14T12:41:03;2.73;;;1.50;;
920;SDS011;447;51.332;6.778;2023-03-14T12:43:34;4.60;;;1.60;;
920;SDS011;447;51.332;6.778;2023-03-14T12:48:34;4.03;;;1.80;;
920;SDS011;447;51.332;6.778;2023-03-14T12:51:04;4.83;;;1.50;;
920;SDS011;447;51.332;6.778;2023-03-14T12:56:23;5.00;;;2.13;;
920;SDS011;447;51.332;6.778;2023-03-14T13:01:53;4.23;;;1.87;;
920;SDS011;447;51.332;6.778;2023-03-14T13:04:31;8.53;;;2.37;;
920;SDS011;447;51.332;6.778;2023-03-14T13:07:03;7.53;;;1.83;;
920;SDS011;447;51.332;6.778;2023-03-14T13:12:11;6.90;;;2.13;;
920;SDS011;447;51.332;6.778;2023-03-14T13:14:47;8.50;;;2.13;;
920;SDS011;447;51.332;6.778;2023-03-14T13:17:30;3.90;;;1.87;;
920;SDS011;447;51.332;6.778;2023-03-14T13:19:59;13.53;;;2.10;;
920;SDS011;447;51.332;6.778;2023-03-14T13:22:33;5.90;;;3.63;;
920;SDS011;447;51.332;6.778;2023-03-14T13:25:07;6.67;;;2.93;;
920;SDS011;447;51.332;6.778;2023-03-14T13:27:38;6.70;;;2.20;;
920;SDS011;447;51.332;6.778;2023-03-14T13:30:14;9.30;;;2.40;;
920;SDS011;447;51.332;6.778;2023-03-14T13:32:43;5.30;;;2.00;;
920;SDS011;447;51.332;6.778;2023-03-14T13:35:29;7.43;;;2.07;;
920;SDS011;447;51.332;6.778;2023-03-14T13:38:03;6.67;;;2.43;;
920;SDS011;447;51.332;6.778;2023-03-14T13:40:31;8.67;;;2.77;;
920;SDS011;447;51.332;6.778;2023-03-14T13:42:59;6.83;;;1.80;;
920;SDS011;447;51.332;6.778;2023-03-14T13:46:05;6.50;;;3.17;;
920;SDS011;447;51.332;6.778;2023-03-14T13:48:35;13.33;;;2.43;;
920;SDS011;447;51.332;6.778;2023-03-14T13:51:10;12.03;;;2.50;;
920;SDS011;447;51.332;6.778;2023-03-14T13:53:51;10.03;;;2.73;;
920;SDS011;447;51.332;6.778;2023-03-14T13:56:19;8.27;;;2.77;;
920;SDS011;447;51.332;6.778;2023-03-14T13:58:47;6.10;;;2.10;;
920;SDS011;447;51.332;6.778;2023-03-14T14:01:18;8.80;;;2.50;;
920;SDS011;447;51.332;6.778;2023-03-14T14:03:47;10.03;;;2.83;;
920;SDS011;447;51.332;6.778;2023-03-14T14:08:47;9.03;;;2.17;;
920;SDS011;447;51.332;6.778;2023-03-14T14:11:17;7.30;;;2.43;;
920;SDS011;447;51.332;6.778;2023-03-14T14:13:55;11.30;;;3.10;;
920;SDS011;447;51.332;6.778;2023-03-14T14:16:24;10.37;;;2.70;;
920;SDS011;447;51.332;6.778;2023-03-14T14:18:53;7.77;;;4.03;;
920;SDS011;447;51.332;6.778;2023-03-14T14:21:21;10.80;;;3.00;;
920;SDS011;447;51.332;6.778;2023-03-14T14:23:51;9.90;;;2.63;;
920;SDS011;447;51.332;6.778;2023-03-14T14:26:22;7.57;;;2.40;;
920;SDS011;447;51.332;6.778;2023-03-14T14:28:58;9.40;;;2.80;;
920;SDS011;447;51.332;6.778;2023-03-14T14:31:30;11.70;;;2.17;;
920;SDS011;447;51.332;6.778;2023-03-14T14:34:01;7.20;;;2.30;;
920;SDS011;447;51.332;6.778;2023-03-14T14:36:40;6.70;;;2.23;;
920;SDS011;447;51.332;6.778;2023-03-14T14:39:21;8.90;;;2.20;;
920;SDS011;447;51.332;6.778;2023-03-14T14:41:53;7.23;;;2.10;;
920;SDS011;447;51.332;6.778;2023-03-14T14:44:28;6.57;;;2.10;;
920;SDS011;447;51.332;6.778;2023-03-14T14:47:01;5.33;;;1.80;;
920;SDS011;447;51.332;6.778;2023-03-14T14:49:31;6.37;;;2.10;;
920;SDS011;447;51.332;6.778;2023-03-14T14:52:03;8.03;;;2.17;;
920;SDS011;447;51.332;6.778;2023-03-14T14:54:33;7.00;;;2.67;;
920;SDS011;447;51.332;6.778;2023-03-14T14:57:05;10.20;;;3.60;;
920;SDS011;447;51.332;6.778;2023-03-14T14:59:42;7.90;;;3.20;;
920;SDS011;447;51.332;6.778;2023-03-14T15:02:16;8.53;;;2.40;;
920;SDS011;447;51.332;6.778;2023-03-14T15:05:00;8.80;;;2.73;;
920;SDS011;447;51.332;6.778;2023-03-14T15:07:27;5.37;;;2.17;;
920;SDS011;447;51.332;6.778;2023-03-14T15:09:55;9.23;;;2.60;;
920;SDS011;447;51.332;6.778;2023-03-14T15:12:21;6.97;;;2.30;;
920;SDS011;447;51.332;6.778;2023-03-14T15:14:49;7.20;;;2.10;;
920;SDS011;447;51.332;6.778;2023-03-14T15:17:19;8.00;;;2.07;;
920;SDS011;447;51.332;6.778;2023-03-14T15:19:45;10.93;;;3.07;;
920;SDS011;447;51.332;6.778;2023-03-14T15:22:13;5.87;;;2.37;;
920;SDS011;447;51.332;6.778;2023-03-14T15:24:44;6.43;;;1.80;;
920;SDS011;447;51.332;6.778;2023-03-14T15:27:16;5.27;;;2.30;;
920;SDS011;447;51.332;6.778;2023-03-14T15:29:44;4.80;;;2.43;;
920;SDS011;447;51.332;6.778;2023-03-14T15:32:13;5.40;;;2.20;;
920;SDS011;447;51.332;6.778;2023-03-14T15:34:43;8.33;;;2.70;;
920;SDS011;447;51.332;6.778;2023-03-14T15:37:13;6.37;;;2.10;;
920;SDS011;447;51.332;6.778;2023-03-14T15:39:41;7.33;;;1.90;;
920;SDS011;447;51.332;6.778;2023-03-14T15:42:13;6.60;;;2.00;;
920;SDS011;447;51.332;6.778;2023-03-14T15:44:42;9.30;;;2.50;;
920;SDS011;447;51.332;6.778;2023-03-14T15:47:12;3.40;;;2.13;;
920;SDS011;447;51.332;6.778;2023-03-14T15:49:41;6.03;;;2.13;;
920;SDS011;447;51.332;6.778;2023-03-14T15:52:07;8.80;;;1.80;;
920;SDS011;447;51.332;6.778;2023-03-14T15:54:34;4.10;;;1.73;;
920;SDS011;447;51.332;6.778;2023-03-14T15:57:00;7.90;;;2.17;;
920;SDS011;447;51.332;6.778;2023-03-14T15:59:28;6.63;;;2.10;;
920;SDS011;447;51.332;6.778;2023-03-14T16:01:54;7.30;;;1.97;;
920;SDS011;447;51.332;6.778;2023-03-14T16:04:20;4.40;;;1.70;;
920;SDS011;447;51.332;6.778;2023-03-14T16:06:51;7.87;;;2.07;;
920;SDS011;447;51.332;6.778;2023-03-14T16:09:16;7.10;;;1.93;;
920;SDS011;447;51.332;6.778;2023-03-14T16:11:44;7.53;;;1.97;;
920;SDS011;447;51.332;6.778;2023-03-14T16:14:16;4.07;;;1.87;;
920;SDS011;447;51.332;6.778;2023-03-14T16:16:42;7.40;;;1.80;;
920;SDS011;447;51.332;6.778;2023-03-14T16:19:08;5.73;;;3.50;;
920;SDS011;447;51.332;6.778;2023-03-14T16:21:36;4.17;;;1.83;;
920;SDS011;447;51.332;6.778;2023-03-14T16:24:05;9.60;;;2.60;;
920;SDS011;447;51.332;6.778;2023-03-14T16:26:31;9.43;;;2.20;;
920;SDS011;447;51.332;6.778;2023-03-14T16:29:01;5.20;;;2.50;;
920;SDS011;447;51.332;6.778;2023-03-14T16:31:32;7.00;;;2.27;;
920;SDS011;447;51.332;6.778;2023-03-14T16:34:10;3.47;;;1.60;;
920;SDS011;447;51.332;6.778;2023-03-14T16:36:41;6.83;;;2.33;;
920;SDS011;447;51.332;6.778;2023-03-14T16:39:10;4.93;;;2.00;;
920;SDS011;447;51.332;6.778;2023-03-14T16:41:36;6.73;;;2.20;;
920;SDS011;447;51.332;6.778;2023-03-14T16:44:06;5.27;;;1.90;;
920;SDS011;447;51.332;6.778;2023-03-14T16:46:34;3.27;;;1.83;;
920;SDS011;447;51.332;6.778;2023-03-14T16:49:00;4.53;;;2.00;;
920;SDS011;447;51.332;6.778;2023-03-14T16:51:27;6.10;;;1.97;;
920;SDS011;447;51.332;6.778;2023-03-14T16:53:55;5.57;;;2.30;;
920;SDS011;447;51.332;6.778;2023-03-14T16:56:21;5.60;;;2.10;;
920;SDS011;447;51.332;6.778;2023-03-14T16:58:50;10.03;;;2.03;;
920;SDS011;447;51.332;6.778;2023-03-14T17:01:18;5.03;;;2.10;;
920;SDS011;447;51.332;6.778;2023-03-14T17:03:49;14.70;;;2.37;;
920;SDS011;447;51.332;6.778;2023-03-14T17:06:19;7.80;;;2.43;;
920;SDS011;447;51.332;6.778;2023-03-14T17:08:51;6.20;;;1.93;;
920;SDS011;447;51.332;6.778;2023-03-14T17:11:23;9.43;;;2.07;;
920;SDS011;447;51.332;6.778;2023-03-14T17:13:49;4.30;;;1.73;;
920;SDS011;447;51.332;6.778;2023-03-14T17:16:17;6.83;;;2.53;;
920;SDS011;447;51.332;6.778;2023-03-14T17:18:46;6.33;;;2.60;;
920;SDS011;447;51.332;6.778;2023-03-14T17:21:16;6.60;;;1.90;;